KTYR/TYR METAR and TAF weather

Enter ICAO airport designator
Station Type Date Time Source
KTYR METAR 2019/04/25 08:17 UTC NOAA

KTYR 250817Z AUTO 28004KT 10SM BKN003 17/16 A2978 RMK AO2 CIG 002V006 T01670161 $


Station Type Date Time Source
KTYR Decoded METAR 2019/04/25 08:17 UTC NOAA

TYLER POUNDS FIELDS, TX, United States (KTYR) 32-21N 095-24W 165M
Apr 25, 2019 - 04:17 AM EDT / 2019.04.25 0817 UTC
Wind: from the W (280 degrees) at 5 MPH (4 KT):0
Visibility: 10 mile(s):0
Sky conditions: mostly cloudy
Temperature: 62.1 F (16.7 C)
Dew Point: 61.0 F (16.1 C)
Relative Humidity: 96%
Pressure (altimeter): 29.78 in. Hg (1008 hPa)
ob: KTYR 250817Z AUTO 28004KT 10SM BKN003 17/16 A2978 RMK AO2 CIG 002V006 T01670161
cycle: 8

Station Type Date Time Source
KTYR TAF 2019/04/25 06:22 UTC NOAA

TAF KTYR 250520Z 2506/2606 30007KT P6SM SCT008 BKN015
TEMPO 2506/2510 OVC008
FM251000 27007KT P6SM OVC007
FM251500 29010KT P6SM OVC015
FM251700 28012KT P6SM BKN025
FM252000 28012G17KT P6SM SCT035

Example: see airport list